Tiempo atmosférico en la estación meteorológica de Gran Canaria Aeropuerto, Las Palmas (24 m.)



Fecha
DESCASC
Temp. máxima en grados centígrados (hora)
DESCASC
Temp. mínima en grados centígrados (hora)
DESCASC
Temp. media en grados centígrados
DESCASC
Racha de viento máxima en m/sg (hora)
DESCASC
Velocidad máxima media en intervalos de 10 minutos(hora)
DESCASC
Precipitaciones diarias en mm
DESCASC
Precipitaciones de 00:00 a 06:00 en mm
DESCASC
Precipitaciones de 06:00 a 12:00 en mm
DESCASC
Precipitaciones de 12:00 a 18:00 en mm
DESCASC
Precipitaciones de 18:00 a 24:00 en mm
DESCASC
16-06-2019 23.2 (16:10) 17.3 (06:50) 20.3 9.72 (16:30) 6.94 (18:40) 0 0 0 0 0
15-06-2019 23.4 (13:30) 18.1 (04:20) 20.8 11.39 (13:20) 6.94 (18:40) 0 0 0 0 0
14-06-2019 21.9 (14:10) 17.3 (07:20) 19.6 10.83 (17:50) 8.33 (19:20) 0 0 0 0 0
13-06-2019 25.6 (15:00) 18.5 (00:00) 22.1 16.39 (15:00) 13.06 (14:40) 0 0 0 0 0
12-06-2019 25.4 (16:30) 17.9 (00:00) 21.6 14.44 (12:30) 11.67 (16:40) 0.4 0.2 0.2 0 0
11-06-2019 23.8 (15:40) 18.7 (00:00) 21.3 16.11 (16:30) 11.67 (14:00) 0 0 0 0 0
10-06-2019 24.9 (15:50) 19 (00:00) 21.9 17.5 (14:50) 13.06 (13:10) 0 0 0 0 0
09-06-2019 23.9 (13:30) 18.7 (00:00) 21.3 18.61 (15:10) 14.44 (16:20) 0 0 0 0 0
08-06-2019 23.8 (17:10) 19.6 (00:00) 21.7 16.11 (17:20) 12.78 (16:20) 0 0 0 0 0
07-06-2019 25.3 (14:20) 18.5 (00:00) 21.9 15.28 (13:50) 12.22 (16:50) 0 0 0 0 0
06-06-2019 24.3 (14:40) 19 (00:00) 21.6 17.5 (14:40) 13.06 (15:40) 0 0 0 0 0
05-06-2019 25.1 (13:10) 20.1 (00:00) 22.6 16.11 (15:40) 12.5 (16:10) 0 0 0 0 0
04-06-2019 28.5 (12:20) 20.5 (00:00) 24.5 15.28 (16:00) 13.33 (18:20) 0 0 0 0 0
03-06-2019 31.6 (17:50) 22 (00:00) 26.8 15.28 (15:20) 12.78 (14:40) 0 0 0 0 0
02-06-2019 28.1 (22:50) 17.7 (00:00) 22.9 13.33 (12:20) 11.11 (12:20) 0 0 0 0 0
01-06-2019 24.8 (15:40) 17.7 (00:00) 21.3 12.78 (11:20) 9.72 (11:30) 0 0 0 0 0
31-05-2019 25.5 (13:40) 16.4 (00:00) 20.9 14.44 (15:00) 11.94 (15:00) 0 0 0 0 0
30-05-2019 24.5 (15:10) 15.9 (00:00) 20.2 16.11 (15:30) 13.33 (15:20) 0 0 0 0 0
29-05-2019 24.9 (14:30) 17.8 (00:00) 21.3 15 (12:10) 12.5 (15:50) 0 0 0 0 0
28-05-2019 24.8 (14:30) 19.2 (00:00) 22 16.39 (15:40) 13.33 (16:30) 0 0 0 0 0
27-05-2019 29.2 (13:40) 18.5 (00:00) 23.9 15 (17:00) 11.67 (17:00) 0 0 0 0 0
26-05-2019 25.6 (13:50) 18.4 (00:00) 22 18.06 (16:20) 13.33 (14:00) 0 0 0 0 0
25-05-2019 24 (15:50) 18.1 (00:00) 21.1 16.94 (15:40) 12.5 (17:50) 0 0 0 0 0
24-05-2019 26.6 (15:50) 18.6 (00:00) 22.6 18.61 (11:20) 12.22 (22:10) 0 0 0 0 0
23-05-2019 24.3 (15:40) 19.2 (00:00) 21.8 20 (12:30) 15.56 (12:30) 0 0 0 0 0
22-05-2019 24.2 (16:40) 19 (00:00) 21.6 16.39 (17:50) 12.22 (13:10) 0 0 0 0 0

Gráficas

Temp. máximas Temp. mínimas Temp. medias Precipitaciones Rachas de viento máximas Velocidades máximas media en intervalos de 10 minutos

Datos horarios

Fecha y hora oficial Temperatura (ºC) Velocidad del viento (km/h) Dirección del viento Racha (km/h) Dirección de racha Precipitación (mm) Presión (hPa) Tendencia (hPa) Humedad (%)
2019-06-20 23:00:00 21.3 18 Norte 37 Norte 0 1015 1.6 68
2019-06-20 22:00:00 21.7 26 Norte 39 Norte 0 1014.2 1.1 69
2019-06-20 21:00:00 22.2 26 Norte 42 Norte 0 1013.7 0.5 65
2019-06-20 20:00:00 23.1 25 Norte 45 Norte 0 1013.4 0.3 65
2019-06-20 19:00:00 24.7 31 Norte 50 Norte 0 1013.1 -0.1 55
2019-06-20 18:00:00 25.5 31 Norte 54 Norte 0 1013.2 -0.4 51
2019-06-20 17:00:00 26.1 37 Norte 58 Norte 0 1013.1 -0.9 52
2019-06-20 16:00:00 26 41 Norte 48 Norte 0 1013.2 -1.1 56
2019-06-20 15:00:00 25.5 41 Norte 54 Nordeste 0 1013.6 -0.9 60
2019-06-20 14:00:00 25.8 41 Nordeste 50 Norte 0 1014 -0.5 60
2019-06-20 13:00:00 25.5 42 Norte 50 Nordeste 0 1014.3 -0.1 60
2019-06-20 12:00:00 24.9 43 Nordeste 54 Norte 0 1014.5 0.4 62
2019-06-20 11:00:00 24.8 39 Norte 48 Nordeste 0 1014.5 0.5 62
2019-06-20 10:00:00 23.9 31 Norte 45 Norte 0 1014.4 0.5 61
2019-06-20 09:00:00 22.8 24 Norte 32 Norte 0 1014.1 0.7 67
2019-06-20 08:00:00 20.9 19 Norte 28 Norte 0 1014 0.5 70
2019-06-20 07:00:00 20.1 13 Norte 24 Norte 0 1013.9 0 69
2019-06-20 06:00:00 20 13 Norte 24 Norte 0 1013.4 -0.9 70
2019-06-20 05:00:00 20.4 16 Norte 30 Norte 0 1013.5 -1.3 67
2019-06-20 04:00:00 20.2 15 Norte 26 Norte 0 1013.9 -1.4 78
2019-06-20 03:00:00 20.6 15 Norte 24 Norte 0 1014.3 -1 79
2019-06-20 02:00:00 20.4 12 Norte 21 Norte 0 1014.8 0 77
2019-06-20 01:00:00 20.8 4 Sudoeste 11 Sudoeste 0 1015.3 1 82
2019-06-20 00:00:00 21.2 9 Sudoeste 15 Sur 0 1015.3 1.4 81
2019-06-19 23:00:00 22 6 Norte 21 Norte 0 1014.8 1.5 62
2019-06-19 22:00:00 22.6 14 Norte 30 Norte 0 1014.3 1.2 62
2019-06-19 21:00:00 23.2 24 Norte 39 Norte 0 1013.9 0.5 64
2019-06-19 20:00:00 24.3 27 Norte 41 Norte 0 1013.3 -0.1 60
2019-06-19 19:00:00 24.9 33 Norte 46 Norte 0 1013.1 -0.6 58
2019-06-19 18:00:00 25.4 34 Nordeste 48 Nordeste 0 1013.4 -0.7 59
2019-06-19 17:00:00 25.1 44 Norte 52 Norte 0 1013.4 -1.3 63
2019-06-19 16:00:00 25.1 40 Nordeste 48 Nordeste 0 1013.7 -1.1 63
2019-06-19 15:00:00 25 39 Norte 46 Nordeste 0 1014.1 -0.5 63
2019-06-19 14:00:00 25.1 35 Nordeste 45 Nordeste 0 1014.7 0.3 63
2019-06-19 13:00:00 24.7 34 Nordeste 45 Nordeste 0 1014.8 0.6 65
2019-06-19 12:00:00 24.7 33 Nordeste 42 Norte 0 1014.6 0.7 66
2019-06-19 11:00:00 23.7 31 Nordeste 35 Nordeste 0 1014.4 0.7 68
2019-06-19 10:00:00 23.1 27 Norte 33 Nordeste 0 1014.2 0.9 71
2019-06-19 09:00:00 22.3 12 Norte 24 Norte 0 1013.9 0.8 71
2019-06-19 08:00:00 21.3 12 Norte 18 Norte 0 1013.7 0.7 78
2019-06-19 07:00:00 20.1 8 Norte 13 Norte 0 1013.3 0.4 81
2019-06-19 06:00:00 20.8 12 Norte 22 Norte 0 1013.1 0.1 84
2019-06-19 05:00:00 20.3 2 Norte 11 Noroeste 0 1013 -0.5 80
2019-06-19 04:00:00 20.4 9 Norte 17 Norte 0 1012.9 -1 78
2019-06-19 03:00:00 21.8 12 Norte 18 Norte 0 1013 -1.2 72
2019-06-19 02:00:00 22.3 10 Norte 21 Norte 0 1013.5 -0.5 71
2019-06-19 01:00:00 22.5 12 Norte 21 Norte 0 1013.9 0.3 71
2019-06-19 00:00:00 22.8 12 Norte 17 Norte 0 1014.2 0.7 71
2019-06-18 23:00:00 22.9 8 Norte 15 Norte 0 1014 0.9 73
2019-06-18 22:00:00 22.7 3 Norte 17 Norte 0 1013.6 0.5 79
2019-06-18 21:00:00 23.1 12 Nordeste 15 Nordeste 0 1013.5 0.3 75
2019-06-18 20:00:00 22.9 10 Norte 15 Norte 0 1013.1 -0.3 75
2019-06-18 19:00:00 22.6 5 Este 15 Este 0 1013.1 -0.6 74
2019-06-18 18:00:00 23 5 Este 15 Sudeste 0 1013.2 -0.4 72
2019-06-18 17:00:00 23 8 Sudeste 17 Sudeste 0 1013.4 -0.6 71
2019-06-18 16:00:00 23.5 13 Sudeste 18 Sudeste 0 1013.7 -0.3 69
2019-06-18 15:00:00 23.7 13 Sudeste 26 Sudeste 0 1013.6 -0.6 69
2019-06-18 14:00:00 23.6 12 Sudeste 24 Este 0 1014 0.3 68
2019-06-18 13:00:00 24.1 12 Este 21 Este 0 1014 0.6 68
2019-06-18 12:00:00 23.4 10 Este 18 Este 0 1014.2 1 69
2019-06-18 11:00:00 22.9 10 Este 21 Este 0 1013.7 0.9 68
2019-06-18 10:00:00 22.9 10 Este 21 Este 0 1013.4 0.9 67
2019-06-18 09:00:00 22.2 7 Este 13 Este 0 1013.2 1.2 67
2019-06-18 08:00:00 19.9 4 Oeste 9 Oeste 0 1012.8 0.8 71
2019-06-18 07:00:00 18.9 7 Oeste 9 Oeste 0 1012.5 0.2 75
2019-06-18 06:00:00 18.9 6 Oeste -- -- 0 1012 -0.6 75
2019-06-18 05:00:00 18.8 -- -- -- -- 0 1012 -1.3 77
2019-06-18 04:00:00 19.1 7 Oeste 9 Oeste 0 1012.3 -1.3 74
2019-06-18 03:00:00 19.5 4 Noroeste 9 Noroeste 0 1012.6 -1.3 72
2019-06-18 02:00:00 19.9 7 Noroeste 9 Noroeste 0 1013.3 -0.5 76
2019-06-18 01:00:00 20.5 6 Noroeste 11 Noroeste 0 1013.6 -0.1 78
2019-06-18 00:00:00 20.9 8 Noroeste 11 Noroeste 0 1013.9 0.5 76
2019-06-17 23:00:00 21.2 0 Calma 9 Sudoeste 0 1013.8 0.5 76
2019-06-17 22:00:00 21.5 7 Sur 11 Sur 0 1013.7 0.3 74
2019-06-17 21:00:00 22.1 9 Sur 17 Sudeste 0 1013.4 0 68
2019-06-17 20:00:00 22.4 11 Sudeste 21 Este 0 1013.3 -0.4 70
2019-06-17 19:00:00 22.7 13 Sudeste 24 Sudeste 0 1013.4 -0.6 68
2019-06-17 18:00:00 23.1 12 Sudeste 22 Sudeste 0 1013.4 -0.8 65
2019-06-17 17:00:00 23.4 14 Sudeste 22 Sudeste 0 1013.7 -0.8 63
2019-06-17 16:00:00 23.3 15 Sudeste 22 Sudeste 0 1014 -0.8 61
2019-06-17 15:00:00 22.9 14 Este 22 Sudeste 0 1014.2 -0.5 64
2019-06-17 14:00:00 23 13 Este 21 Este 0 1014.5 0 63
2019-06-17 13:00:00 22.2 12 Este 22 Este 0 1014.8 0.4 65
2019-06-17 12:00:00 22.3 12 Este 22 Este 0 1014.7 0.4 66
2019-06-17 11:00:00 21.5 12 Este 22 Este 0 1014.5 0.5 68
2019-06-17 10:00:00 21.2 12 Este 15 Este 0 1014.4 0.6 67
2019-06-17 09:00:00 20.6 5 Norte 15 Nordeste 0 1014.3 0.3 68
2019-06-17 08:00:00 18.3 7 Oeste 11 Oeste 0 1014 -0.2 72
2019-06-17 07:00:00 17.2 8 Noroeste 11 Noroeste 0 1013.8 -0.6 75
2019-06-17 06:00:00 16.8 8 Noroeste 11 Oeste 0 1014 -0.9 74
2019-06-17 05:00:00 17.1 9 Oeste 11 Oeste 0 1014.2 -1.4 72
2019-06-17 04:00:00 17.9 10 Noroeste 13 Noroeste 0 1014.4 -1.9 69
2019-06-17 03:00:00 18 8 Oeste 13 Noroeste 0 1014.9 -1.4 69
2019-06-17 02:00:00 18.1 7 Noroeste 11 Noroeste 0 1015.6 -0.3 70
2019-06-17 01:00:00 18.8 9 Noroeste 13 Noroeste 0 1016.3 0.7 69
2019-06-17 00:00:00 19 9 Noroeste 15 Norte 0 1016.3 1 71
2019-06-16 23:00:00 19.7 12 Norte 21 Norte 0 1015.9 1 70
2019-06-16 22:00:00 20 16 Norte 26 Norte 0 1015.6 0.8 68
2019-06-16 21:00:00 20.4 18 Norte 30 Nordeste 0 1015.3 0.6 68
2019-06-16 20:00:00 21.3 24 Norte 30 Norte 0 1014.9 0.1 64
2019-06-16 19:00:00 21.8 23 Norte 35 Nordeste 0 1014.8 -0.6 62
2019-06-16 18:00:00 22.3 25 Nordeste 35 Norte 0 1014.7 -1.2 60
2019-06-16 17:00:00 22.8 25 Nordeste 35 Nordeste 0 1014.8 -1.4 58
2019-06-16 16:00:00 22.4 23 Nordeste 33 Nordeste 0 1015.4 -1.1 59
2019-06-16 15:00:00 22.3 22 Nordeste 30 Nordeste 0 1015.9 -0.6 60
2019-06-16 14:00:00 22.1 21 Nordeste 32 Nordeste 0 1016.2 0.2 61
2019-06-16 13:00:00 21.7 20 Nordeste 30 Nordeste 0 1016.5 0.8 63
2019-06-16 12:00:00 21.9 21 Nordeste 32 Norte 0 1016.5 0.9 62
2019-06-16 11:00:00 22.2 21 Nordeste 30 Nordeste 0 1016 0.9 61
2019-06-16 10:00:00 21.2 19 Norte 26 Norte 0 1015.7 1 65
2019-06-16 09:00:00 20.3 9 Norte 15 Nordeste 0 1015.6 1.4 61
2019-06-16 08:00:00 17.3 10 Noroeste 13 Noroeste 0 1015.1 0.9 72
2019-06-16 07:00:00 17.3 11 Noroeste 15 Noroeste 0 1014.7 0.1 74
2019-06-16 06:00:00 17.5 11 Noroeste 13 Oeste 0 1014.2 -0.8 73
2019-06-16 05:00:00 18 9 Noroeste 11 Noroeste 0 1014.2 -1.3 70
2019-06-16 04:00:00 18.8 8 Norte 15 Norte 0 1014.6 -1.5 72
2019-06-16 03:00:00 19.3 9 Norte 13 Norte 0 1015 -1.3 71
2019-06-16 02:00:00 19.4 7 Norte 21 Norte 0 1015.5 -0.5 70
2019-06-16 01:00:00 19.8 16 Norte 22 Norte 0 1016.1 0.8 68
2019-06-16 00:00:00 19.8 17 Norte 24 Norte 0 1016.3 1.6 68
2019-06-15 23:00:00 19.7 19 Norte 28 Norte 0 1016 1.6 68
2019-06-15 22:00:00 20.1 21 Norte 28 Norte 0 1015.3 1.2 66
2019-06-15 21:00:00 20.3 22 Norte 32 Norte 0 1014.7 0.4 65
2019-06-15 20:00:00 20.5 22 Norte 32 Nordeste 0 1014.4 -0.2 65
2019-06-15 19:00:00 20.9 24 Norte 33 Norte 0 1014.1 -0.8 65
2019-06-15 18:00:00 21.2 23 Norte 32 Norte 0 1014.3 -0.9 63
2019-06-15 17:00:00 21.3 19 Norte 26 Norte 0 1014.6 -0.8 61
2019-06-15 16:00:00 21.2 16 Norte 26 Norte 0 1014.9 -0.5 59
2019-06-15 15:00:00 21.4 17 Nordeste 28 Nordeste 0 1015.2 -0.6 61
2019-06-15 14:00:00 22 20 Nordeste 41 Norte 0 1015.4 -0.1 58
2019-06-15 13:00:00 22.5 21 Norte 33 Nordeste 0 1015.4 0.1 58
2019-06-15 12:00:00 22.3 24 Nordeste 32 Nordeste 0 1015.8 0.8 55
2019-06-15 11:00:00 22 21 Nordeste 28 Nordeste 0 1015.5 0.9 53
2019-06-15 10:00:00 21.7 14 Norte 28 Nordeste 0 1015.3 0.9 48
2019-06-15 09:00:00 20.7 19 Norte 30 Nordeste 0 1015 0.5 54
2019-06-15 08:00:00 19.4 22 Norte 28 Norte 0 1014.6 0.1 66
2019-06-15 07:00:00 18.8 11 Norte 18 Norte 0 1014.4 -0.1 69
2019-06-15 06:00:00 18.8 12 Norte 17 Norte 0 1014.5 -0.4 70
2019-06-15 05:00:00 18.6 8 Norte 17 Norte 0 1014.5 -0.8 66
2019-06-15 04:00:00 18.4 9 Norte 18 Norte 0 1014.5 -1.5 68
2019-06-15 03:00:00 19.1 12 Norte 18 Norte 0 1014.9 -1.2 66
2019-06-15 02:00:00 19 12 Norte 18 Norte 0 1015.3 -0.6 64
2019-06-15 01:00:00 18.5 8 Norte 17 Norte 0 1016 0.6 68
2019-06-15 00:00:00 18.4 10 Noroeste 15 Noroeste 0 1016.1 1.2 69
2019-06-14 23:00:00 19.2 13 Norte 26 Norte 0 1015.9 1.3 68
2019-06-14 22:00:00 20.1 21 Norte 28 Norte 0 1015.4 1 64
2019-06-14 21:00:00 20.3 22 Norte 33 Norte 0 1014.9 0.5 65
2019-06-14 20:00:00 20.6 24 Norte 37 Norte 0 1014.6 0.2 65
2019-06-14 19:00:00 21.4 28 Norte 37 Norte 0 1014.4 -0.2 57
2019-06-14 18:00:00 21.8 27 Norte 39 Nordeste 0 1014.4 -0.3 52
2019-06-14 17:00:00 21.3 23 Nordeste 32 Nordeste 0 1014.4 -0.7 58
2019-06-14 16:00:00 20.7 17 Nordeste 26 Nordeste 0 1014.6 -0.8 66
2019-06-14 15:00:00 20.8 22 Nordeste 33 Nordeste 0 1014.7 -0.6 63
2019-06-14 14:00:00 21.6 24 Norte 32 Nordeste 0 1015.1 -0.2 63
2019-06-14 13:00:00 21.3 20 Norte 32 Norte 0 1015.4 0.7 63
2019-06-14 12:00:00 21.5 21 Norte 30 Norte 0 1015.3 1 62
2019-06-14 11:00:00 20.3 14 Norte 26 Norte 0 1015.3 1.3 65
2019-06-14 10:00:00 20.3 17 Norte 24 Norte 0 1014.7 1.3 63
2019-06-14 09:00:00 20 14 Norte 22 Norte 0 1014.3 1.5 60
2019-06-14 08:00:00 18.2 9 Noroeste 15 Norte 0 1014 1.2 69
2019-06-14 07:00:00 17.5 9 Noroeste 13 Noroeste 0 1013.4 0.9 73
2019-06-14 06:00:00 17.6 11 Norte 17 Norte 0 1012.8 -0.2 71
2019-06-14 05:00:00 17.7 9 Norte 15 Noroeste 0 1012.8 -0.5 69
2019-06-14 04:00:00 17.7 8 Norte 18 Norte 0 1012.5 -1.5 65
2019-06-14 03:00:00 18.2 12 Norte 21 Norte 0 1013 -1.2 66
2019-06-14 02:00:00 19.1 13 Norte 21 Norte 0 1013.3 -0.8 66
2019-06-14 01:00:00 19.2 15 Norte 24 Noroeste 0 1014 0.3 68
2019-06-14 00:00:00 19.6 15 Norte 24 Norte 0 1014.2 1.4 66
2019-06-13 23:00:00 19.8 18 Norte 26 Norte 0 1014.1 1.8 63
2019-06-13 22:00:00 19.7 15 Norte 30 Norte 0 1013.7 1.6 64
2019-06-13 21:00:00 20.3 18 Norte 37 Norte 0 1012.8 1.4 62
2019-06-13 20:00:00 21.3 26 Norte 41 Norte 0 1012.3 0.9 57
2019-06-13 19:00:00 22.1 26 Norte 46 Norte 0 1012.1 0.7 54
2019-06-13 18:00:00 22.5 37 Norte 52 Norte 0 1011.4 -0.2 54
2019-06-13 17:00:00 24.2 39 Norte 55 Norte 0 1011.4 -0.4 47
2019-06-13 16:00:00 24.5 40 Norte 59 Norte 0 1011.4 -0.6 45
2019-06-13 15:00:00 25.3 44 Norte 59 Nordeste 0 1011.6 -0.5 40
2019-06-13 14:00:00 24.5 46 Norte 55 Norte 0 1011.8 -0.2 44
2019-06-13 13:00:00 24.3 29 Norte 54 Norte 0 1012 0.2 41
2019-06-13 12:00:00 22.4 34 Norte 45 Nordeste 0 1012.1 1 54
2019-06-13 11:00:00 22 23 Norte 37 Norte 0 1012 1.5 50
2019-06-13 10:00:00 20.6 14 Norte 30 Noroeste 0 1011.8 1.6 59
2019-06-13 09:00:00 19.9 19 Norte 32 Norte 0 1011.1 1 59
2019-06-13 08:00:00 19.4 14 Norte 28 Norte 0 1010.5 0.7 62
2019-06-13 07:00:00 19 15 Norte 28 Norte 0 1010.2 0 67
2019-06-13 06:00:00 18.9 19 Norte 32 Norte 0 1010.1 -0.3 69
2019-06-13 05:00:00 18.8 16 Norte 33 Norte 0 1009.8 -1 68
2019-06-13 04:00:00 18.9 22 Norte 35 Norte 0 1010.2 -0.8 67
2019-06-13 03:00:00 19 15 Norte 32 Norte 0 1010.4 -0.8 60
2019-06-13 02:00:00 19.1 19 Norte 33 Norte 0 1010.8 0 66
2019-06-13 01:00:00 19 14 Norte 28 Noroeste 0 1011 0.6 62
2019-06-13 00:00:00 19.2 20 Norte 33 Norte 0 1011.2 1.3 67
2019-06-12 23:00:00 19.6 22 Norte 33 Norte 0 1010.8 1.4 69
2019-06-12 22:00:00 19.8 22 Norte 39 Norte 0 1010.4 1.5 67
2019-06-12 21:00:00 20.3 23 Norte 42 Norte 0 1009.9 1.1 67
2019-06-12 20:00:00 20.8 25 Norte 46 Norte 0 1009.4 0.6 68
2019-06-12 19:00:00 22.6 26 Norte 52 Norte 0 1008.9 -0.3 59
2019-06-12 18:00:00 23.3 33 Norte 52 Norte 0 1008.8 -0.6 59
2019-06-12 17:00:00 24.4 35 Norte 52 Norte 0 1008.8 -1.1 47
2019-06-12 16:00:00 24.6 32 Norte 52 Norte 0 1009.2 -1.7 45
2019-06-12 15:00:00 24.3 37 Norte 50 Norte 0 1009.4 -1.1 55
2019-06-12 14:00:00 23.8 30 Norte 45 Norte 0 1009.9 -0.5 53
2019-06-12 13:00:00 22.4 30 Norte 52 Norte 0 1010.9 0.6 62
2019-06-12 12:00:00 20.8 30 Norte 46 Norte 0 1010.5 0.7 68
2019-06-12 11:00:00 21.1 27 Norte 45 Norte 0 1010.4 1 69
2019-06-12 10:00:00 19.2 24 Norte 41 Norte 0 1010.3 1.1 86
2019-06-12 09:00:00 18.6 22 Norte 41 Norte 0.2 1009.8 0.8 91
2019-06-12 08:00:00 19.9 22 Noroeste 42 Noroeste 0 1009.4 0.2 69
2019-06-12 07:00:00 19.6 29 Noroeste 39 Noroeste 0 1009.2 -0.5 73
2019-06-12 06:00:00 18.8 24 Norte 39 Norte 0 1009 -0.7 84
2019-06-12 05:00:00 18.5 18 Norte 41 Noroeste 0.2 1009.2 -1.2 87
2019-06-12 04:00:00 18 26 Norte 42 Norte 0 1009.7 -1.1 91
2019-06-12 03:00:00 18.5 23 Norte 42 Norte 0 1009.7 -1.5 86
2019-06-12 02:00:00 19.9 25 Norte 39 Norte 0 1010.4 -0.5 73
2019-06-12 01:00:00 20 26 Norte 42 Noroeste 0 1010.8 0.1 73
2019-06-12 00:00:00 20.3 24 Norte 46 Norte 0 1011.2 0.4 70
2019-06-11 23:00:00 20.9 24 Norte 46 Norte 0 1010.9 0.3 66
2019-06-11 22:00:00 20.8 25 Norte 48 Norte 0 1010.7 0.2 66
2019-06-11 21:00:00 20.9 28 Norte 52 Noroeste 0 1010.8 0.4 65
2019-06-11 20:00:00 21.3 33 Norte 54 Norte 0 1010.6 -0.3 62
2019-06-11 19:00:00 22.1 30 Norte 54 Norte 0 1010.5 -0.7 64
2019-06-11 18:00:00 22.9 34 Norte 55 Norte 0 1010.4 -1.4 64
2019-06-11 17:00:00 22.7 33 Norte 58 Norte 0 1010.9 -1.5 61
2019-06-11 16:00:00 23.1 40 Norte 54 Norte 0 1011.2 -1.4 59
2019-06-11 15:00:00 22.7 36 Norte 54 Norte 0 1011.8 -0.8 60
2019-06-11 14:00:00 21.8 42 Norte 54 Norte 0 1012.4 -0.1 69
2019-06-11 13:00:00 21.8 35 Norte 52 Norte 0 1012.6 0.2 66
2019-06-11 12:00:00 21.9 31 Norte 48 Norte 0 1012.6 0.1 65
2019-06-11 11:00:00 21.1 28 Norte 50 Norte 0 1012.5 -0.2 62
2019-06-11 10:00:00 20.2 33 Norte 50 Norte 0 1012.4 0.1 63
2019-06-11 09:00:00 19.6 29 Norte 48 Norte 0 1012.5 0.2 69
2019-06-11 08:00:00 19.4 25 Norte 46 Norte 0 1012.7 0.2 68
2019-06-11 07:00:00 18.8 29 Norte 46 Norte 0 1012.3 -0.6 74
2019-06-11 06:00:00 19.1 30 Norte 45 Norte 0 1012.3 -1.2 69
2019-06-11 05:00:00 19.3 28 Norte 46 Norte 0 1012.5 -1.4 65
2019-06-11 04:00:00 19 26 Norte 46 Norte 0 1012.9 -1.7 70
2019-06-11 03:00:00 19.2 27 Norte 50 Norte 0 1013.5 -1.4 72
2019-06-11 02:00:00 19.4 27 Norte 48 Norte 0 1013.9 -0.7 71
2019-06-11 01:00:00 19.4 24 Norte 48 Norte 0 1014.6 0.4 69
2019-06-11 00:00:00 19.6 29 Norte 46 Norte 0 1014.9 0.8 71
2019-06-10 23:00:00 19.9 30 Norte 48 Norte 0 1014.6 0.7 72
2019-06-10 22:00:00 20 29 Norte 50 Norte 0 1014.2 0.4 68
2019-06-10 21:00:00 20.3 30 Norte 52 Norte 0 1014.1 0.1 67
2019-06-10 20:00:00 21.4 41 Norte 54 Norte 0 1013.9 -0.3 68
2019-06-10 19:00:00 22.3 29 Norte 50 Norte 0 1013.8 -1.1 61
2019-06-10 18:00:00 22.9 36 Norte 61 Norte 0 1014 -1.2 57
2019-06-10 17:00:00 23.4 34 Norte 61 Norte 0 1014.2 -1.6 51
2019-06-10 16:00:00 24.2 39 Norte 59 Norte 0 1014.9 -1.4 54
2019-06-10 15:00:00 23.7 38 Norte 63 Norte 0 1015.2 -1.5 50
2019-06-10 14:00:00 23.7 36 Norte 58 Norte 0 1015.8 -1.2 56
2019-06-10 13:00:00 23 31 Norte 54 Norte 0 1016.3 -0.6 56
2019-06-10 12:00:00 21.6 30 Norte 54 Norte 0 1016.7 -0.2 62
2019-06-10 11:00:00 21.7 33 Norte 48 Norte 0 1017 0.4 59
2019-06-10 10:00:00 20 29 Norte 42 Norte 0 1016.9 0.5 69
2019-06-10 09:00:00 19.9 26 Norte 42 Norte 0 1016.9 0.7 65
2019-06-10 08:00:00 19.4 24 Norte 46 Norte 0 1016.6 0.2 67
2019-06-10 07:00:00 19.2 23 Norte 46 Norte 0 1016.4 -0.2 67
2019-06-10 06:00:00 19 31 Norte 46 Norte 0 1016.2 -0.7 67
2019-06-10 05:00:00 19.2 28 Norte 42 Norte 0 1016.4 -1 67
2019-06-10 04:00:00 19.2 23 Norte 42 Norte 0 1016.6 -1.2 67
2019-06-10 03:00:00 19.4 30 Norte 46 Norte 0 1016.9 -1 67
2019-06-10 02:00:00 19.7 31 Norte 50 Norte 0 1017.4 -0.3 66
2019-06-10 01:00:00 19.7 32 Norte 48 Norte 0 1017.8 0.6 68
2019-06-10 00:00:00 19.8 32 Norte 50 Norte 0 1017.9 0.9 66
2019-06-09 23:00:00 20.1 29 Norte 48 Norte 0 1017.7 0.7 64
2019-06-09 22:00:00 20 36 Norte 52 Norte 0 1017.2 0.5 63
2019-06-09 21:00:00 20 35 Norte 55 Norte 0 1017 0.4 62
2019-06-09 20:00:00 20.7 31 Norte 58 Norte 0 1017 0.4 59
2019-06-09 19:00:00 21.5 39 Norte 63 Norte 0 1016.7 -0.2 57
2019-06-09 18:00:00 22.1 41 Norte 65 Norte 0 1016.6 -0.6 57
2019-06-09 17:00:00 22.9 42 Norte 65 Norte 0 1016.6 -1 49
2019-06-09 16:00:00 23.2 49 Norte 67 Norte 0 1016.9 -1.6 50
2019-06-09 15:00:00 23.7 48 Norte 63 Norte 0 1017.2 -1.1 46
2019-06-09 14:00:00 23.4 48 Norte 65 Norte 0 1017.6 -0.3 47
2019-06-09 13:00:00 22.2 38 Norte 54 Norte 0 1018.5 0.8 51
2019-06-09 12:00:00 22.4 34 Norte 52 Nordeste 0 1018.3 0.7 49
2019-06-09 11:00:00 22 37 Norte 50 Norte 0 1017.9 0.7 55
2019-06-09 10:00:00 20.1 30 Norte 46 Norte 0 1017.7 0.7 66
2019-06-09 09:00:00 19.9 24 Norte 45 Norte 0 1017.6 0.7 55
2019-06-09 08:00:00 19.2 21 Norte 39 Norte 0 1017.2 0.4 63
2019-06-09 07:00:00 19.2 19 Norte 35 Norte 0 1017 -0.1 59
2019-06-09 06:00:00 19.3 21 Norte 41 Norte 0 1016.9 -0.4 61
2019-06-09 05:00:00 19.3 17 Norte 33 Norte 0 1016.8 -0.7 64
2019-06-09 04:00:00 19 23 Norte 37 Norte 0 1017.1 -0.7 63
2019-06-09 03:00:00 18.7 19 Norte 37 Norte 0 1017.3 -0.6 64
2019-06-09 02:00:00 19.1 23 Norte 45 Norte 0 1017.5 0 64
2019-06-09 01:00:00 19.2 27 Norte 41 Norte 0 1017.8 1.2 65
2019-06-09 00:00:00 19.6 27 Norte 46 Norte 0 1017.9 1.6 64
2019-06-08 23:00:00 19.8 28 Norte 46 Norte 0 1017.5 1.6 64
2019-06-08 22:00:00 20 28 Norte 48 Norte 0 1016.6 1.1 65
2019-06-08 21:00:00 20.4 31 Norte 50 Norte 0 1016.3 1.1 61
2019-06-08 20:00:00 21.1 31 Norte 52 Norte 0 1015.9 0.5 64
2019-06-08 19:00:00 22.2 32 Norte 55 Norte 0 1015.5 -0.2 58
2019-06-08 18:00:00 22.7 41 Norte 58 Norte 0 1015.2 -0.9 58
2019-06-08 17:00:00 23.2 45 Norte 55 Norte 0 1015.4 -0.8 59
2019-06-08 16:00:00 23.1 43 Norte 52 Nordeste 0 1015.7 -0.8 60
2019-06-08 15:00:00 22.9 38 Norte 50 Norte 0 1016.1 -0.4 62
2019-06-08 14:00:00 23.1 33 Norte 45 Norte 0 1016.2 -0.1 63
2019-06-08 13:00:00 21.9 34 Norte 45 Norte 0 1016.5 0.6 66
2019-06-08 12:00:00 21.6 24 Norte 39 Norte 0 1016.5 0.8 68
2019-06-08 11:00:00 21.3 24 Norte 39 Nordeste 0 1016.3 1 71
2019-06-08 10:00:00 20.9 28 Norte 37 Norte 0 1015.9 1 72
2019-06-08 09:00:00 20.5 26 Norte 37 Norte 0 1015.7 1.3 76
2019-06-08 08:00:00 20.2 15 Norte 32 Norte 0 1015.3 1 80
2019-06-08 07:00:00 20 20 Norte 33 Norte 0 1014.9 0.5 82
2019-06-08 06:00:00 20.1 23 Norte 35 Norte 0 1014.4 0.1 81
2019-06-08 05:00:00 20.3 20 Norte 32 Norte 0 1014.3 0 80
2019-06-08 04:00:00 20.3 19 Norte 32 Norte 0 1014.4 -0.1 82
2019-06-08 03:00:00 20.3 17 Norte 35 Norte 0 1014.3 -0.1 80
2019-06-08 02:00:00 20.7 19 Norte 35 Norte 0 1014.3 0.1 78
2019-06-08 01:00:00 21.1 19 Norte 33 Norte 0 1014.5 0.7 69
2019-06-08 00:00:00 21 21 Norte 39 Norte 0 1014.4 1 68
2019-06-07 23:00:00 20.8 23 Norte 37 Norte 0 1014.2 0.6 71
2019-06-07 22:00:00 21.2 23 Norte 39 Norte 0 1013.8 0.5 69
2019-06-07 21:00:00 21.3 20 Norte 41 Norte 0 1013.4 0.2 67
2019-06-07 20:00:00 22.2 27 Norte 41 Norte 0 1013.6 0.5 68
2019-06-07 19:00:00 23.1 30 Norte 46 Nordeste 0 1013.3 0 64
2019-06-07 18:00:00 23.9 35 Norte 54 Norte 0 1013.2 -0.7 57
2019-06-07 17:00:00 24.4 41 Norte 55 Norte 0 1013.1 -0.9 53
2019-06-07 16:00:00 24.6 39 Norte 55 Norte 0 1013.3 -0.9 51
2019-06-07 15:00:00 24.6 38 Norte 50 Norte 0 1013.9 -0.2 54
2019-06-07 14:00:00 24.2 35 Norte 55 Nordeste 0 1014 0.4 53
2019-06-07 13:00:00 23.8 34 Norte 54 Nordeste 0 1014.2 0.8 53
2019-06-07 12:00:00 22.6 30 Norte 46 Norte 0 1014.1 1.1 57
2019-06-07 11:00:00 22.2 28 Norte 46 Norte 0 1013.6 0.8 54
2019-06-07 10:00:00 20.8 28 Norte 42 Norte 0 1013.4 0.9 64
2019-06-07 09:00:00 20.2 25 Norte 39 Noroeste 0 1013 0.8 63
2019-06-07 08:00:00 18.6 18 Norte 30 Norte 0 1012.8 0.8 72
2019-06-07 07:00:00 18.5 19 Norte 35 Noroeste 0 1012.5 0 69
2019-06-07 06:00:00 18.7 22 Norte 41 Noroeste 0 1012.2 -0.4 69
2019-06-07 05:00:00 19.6 27 Norte 37 Noroeste 0 1012 -1.1 58
2019-06-07 04:00:00 18.9 21 Norte 39 Norte 0 1012.5 -0.9 65
2019-06-07 03:00:00 18.8 21 Norte 42 Norte 0 1012.6 -1 66
2019-06-07 02:00:00 19.3 25 Norte 37 Norte 0 1013.1 -0.1 69
2019-06-07 01:00:00 18.9 19 Norte 33 Norte 0 1013.4 0.6 67
2019-06-07 00:00:00 19 22 Norte 37 Noroeste 0 1013.6 1 67
2019-06-06 23:00:00 19.3 24 Norte 45 Norte 0 1013.2 0.8 64
2019-06-06 22:00:00 19.6 22 Norte 45 Norte 0 1012.8 0.8 62
2019-06-06 21:00:00 19.9 28 Norte 46 Norte 0 1012.6 0.6 60
2019-06-06 20:00:00 20.9 29 Norte 48 Norte 0 1012.4 0 54
2019-06-06 19:00:00 21.6 32 Norte 55 Norte 0 1012 -0.4 51
2019-06-06 18:00:00 22.5 40 Norte 55 Norte 0 1012 -0.5 52
2019-06-06 17:00:00 22.7 41 Norte 59 Norte 0 1012.4 -0.2 52
2019-06-06 16:00:00 23 41 Norte 59 Norte 0 1012.4 -0.5 53
2019-06-06 15:00:00 23.8 44 Norte 63 Norte 0 1012.5 -0.5 51
2019-06-06 14:00:00 23.3 44 Norte 61 Norte 0 1012.6 -0.3 51
2019-06-06 13:00:00 23.5 44 Norte 58 Norte 0 1012.9 0.3 51
2019-06-06 12:00:00 22 25 Norte 41 Norte 0 1013 0.5 49
2019-06-06 11:00:00 20.5 23 Norte 41 Norte 0 1012.9 0.8 61
2019-06-06 10:00:00 21.3 31 Norte 41 Norte 0 1012.6 0.5 53
2019-06-06 09:00:00 20.8 26 Norte 45 Norte 0 1012.5 0.7 52
2019-06-06 08:00:00 19.6 22 Norte 35 Norte 0 1012.1 0 60
2019-06-06 07:00:00 19.1 19 Norte 37 Norte 0 1012.1 -0.2 66
2019-06-06 06:00:00 19.5 22 Norte 37 Norte 0 1011.8 -0.8 62
2019-06-06 05:00:00 19.4 21 Norte 37 Norte 0 1012.1 -0.9 69
2019-06-06 04:00:00 19.6 22 Norte 35 Norte 0 1012.3 -1.1 67
2019-06-06 03:00:00 19.7 22 Norte 37 Norte 0 1012.6 -0.7 70
2019-06-06 02:00:00 19.8 22 Norte 41 Norte 0 1013 -0.4 69
2019-06-06 01:00:00 20 22 Norte 42 Norte 0 1013.4 0.2 71
2019-06-06 00:00:00 20.3 29 Norte 46 Norte 0 1013.3 0.7 74
2019-06-05 23:00:00 20.4 26 Norte 42 Norte 0 1013.4 1.1 74
2019-06-05 22:00:00 20.4 27 Norte 41 Norte 0 1013.2 0.9 78
2019-06-05 21:00:00 20.7 24 Norte 41 Norte 0 1012.6 0.3 77
2019-06-05 20:00:00 21.6 28 Norte 45 Norte 0 1012.3 -0.3 71
2019-06-05 19:00:00 22.8 24 Norte 46 Norte 0 1012.3 -0.4 65
2019-06-05 18:00:00 23.8 32 Norte 52 Norte 0 1012.3 -0.9 60
2019-06-05 17:00:00 23.6 37 Norte 58 Norte 0 1012.6 -0.9 62
2019-06-05 16:00:00 24.8 42 Norte 58 Norte 0 1012.7 -1 58
2019-06-05 15:00:00 24.4 42 Norte 55 Norte 0 1013.2 -0.6 57
2019-06-05 14:00:00 24.2 35 Norte 54 Nordeste 0 1013.5 -0.2 61
2019-06-05 13:00:00 24.2 39 Norte 54 Norte 0 1013.7 0.1 58
2019-06-05 12:00:00 22.9 36 Norte 48 Norte 0 1013.8 0.5 69
2019-06-05 11:00:00 23.1 30 Norte 46 Norte 0 1013.7 0.4 66
2019-06-05 10:00:00 22.8 30 Norte 50 Norte 0 1013.6 0.7 65
2019-06-05 09:00:00 21.8 24 Norte 46 Norte 0 1013.3 0.5 68
2019-06-05 08:00:00 20.8 23 Norte 42 Norte 0 1013.3 0.3 72
2019-06-05 07:00:00 20.5 23 Norte 45 Norte 0 1012.9 -0.1 73
2019-06-05 06:00:00 20.5 20 Norte 41 Norte 0 1012.8 -0.5 73
2019-06-05 05:00:00 20.9 21 Norte 41 Norte 0 1013 -0.6 71
2019-06-05 04:00:00 21.1 28 Norte 45 Norte 0 1013 -1.2 71
2019-06-05 03:00:00 20.8 26 Norte 52 Norte 0 1013.3 -1.3 69
2019-06-05 02:00:00 20.9 35 Norte 54 Norte 0 1013.6 -0.6 71
2019-06-05 01:00:00 20.7 28 Norte 42 Norte 0 1014.2 0.8 74
2019-06-05 00:00:00 20.8 26 Norte 52 Norte 0 1014.6 1.8 72
2019-06-04 23:00:00 20.6 33 Norte 55 Norte 0 1014.2 1.9 71
2019-06-04 22:00:00 20.5 32 Norte 54 Norte 0 1013.4 1.5 71
2019-06-04 21:00:00 21.2 29 Norte 45 Norte 0 1012.8 0.8 68
2019-06-04 20:00:00 22.7 31 Norte 52 Norte 0 1012.3 -0.2 64
2019-06-04 19:00:00 24.3 42 Norte 55 Nordeste 0 1011.9 -1 61
2019-06-04 18:00:00 24.8 44 Nordeste 52 Nordeste 0 1012 -1.1 60
2019-06-04 17:00:00 25 41 Norte 54 Norte 0 1012.5 -0.9 61
2019-06-04 16:00:00 25.3 42 Norte 55 Norte 0 1012.9 -1 61
2019-06-04 15:00:00 26.2 40 Norte 52 Norte 0 1013.1 -0.5 57
2019-06-04 14:00:00 26.9 34 Norte 54 Norte 0 1013.4 0.1 40
2019-06-04 13:00:00 27.9 41 Norte 52 Nordeste 0 1013.9 0.9 35
2019-06-04 12:00:00 28.1 39 Norte 48 Norte 0 1013.6 1.5 29
2019-06-04 11:00:00 26.3 33 Norte 48 Norte -- 1013.3 2.1 29
2019-06-04 10:00:00 25.4 33 Norte 48 Norte 0 1013 2.2 35
2019-06-04 09:00:00 25.2 31 Norte 46 Norte 0 1012.1 1.7 32
2019-06-04 08:00:00 23.9 28 Norte 46 Norte 0 1011.2 1.3 31
2019-06-04 07:00:00 23.6 28 Norte 45 Norte 0 1010.8 0.7 31
2019-06-04 06:00:00 21.2 22 Norte 39 Norte 0 1010.4 -0.6 59
2019-06-04 05:00:00 21.8 27 Norte 41 Norte 0 1009.9 -1.7 52
2019-06-04 04:00:00 24 26 Norte 42 Norte 0 1010.1 -1.8 24
2019-06-04 03:00:00 23.1 27 Norte 46 Norte 0 1011 -0.9 33
2019-06-04 02:00:00 21.1 36 Norte 46 Norte 0 1011.6 0 70
2019-06-04 01:00:00 21.6 30 Norte 41 Norte 0 1011.9 1.1 67
2019-06-04 00:00:00 22.2 25 Norte 39 Norte 0 1011.9 1.6 64
2019-06-03 23:00:00 22.7 30 Norte 37 Norte 0 1011.6 1.7 64
2019-06-03 22:00:00 23.9 26 Norte 39 Norte 0 1010.8 1 58
2019-06-03 21:00:00 27.3 28 Norte 39 Norte 0 1010.3 0.5 38
2019-06-03 20:00:00 29.3 26 Norte 41 Norte 0 1009.9 0 33
2019-06-03 19:00:00 29.8 29 Norte 46 Norte 0 1009.8 -0.4 37
2019-06-03 18:00:00 31.1 32 Norte 45 Norte 0 1009.8 -0.3 35
2019-06-03 17:00:00 30.7 35 Norte 54 Norte 0 1009.9 -0.5 41
2019-06-03 16:00:00 28 45 Norte 55 Norte 0 1010.2 -0.6 54
2019-06-03 15:00:00 28.9 42 Norte 54 Norte 0 1010.1 -0.4 46
2019-06-03 14:00:00 29.8 33 Norte 50 Norte 0 1010.4 0.2 30
2019-06-03 13:00:00 28.9 38 Norte 52 Norte 0 1010.8 0.9 38
2019-06-03 12:00:00 28.6 43 Norte 50 Norte 0 1010.5 0.8 40
2019-06-03 11:00:00 28.3 35 Norte 46 Norte 0 1010.2 0.9 41
2019-06-03 10:00:00 28.7 29 Norte 39 Nordeste 0 1009.9 0.9 33
2019-06-03 09:00:00 27.7 22 Norte 37 Norte 0 1009.7 1.1 24
2019-06-03 08:00:00 25.9 22 Norte 37 Norte 0 1009.3 0.4 24
2019-06-03 07:00:00 25.3 23 Norte 37 Norte 0 1009 -0.3 28
2019-06-03 06:00:00 23.3 30 Norte 37 Norte 0 1008.6 -1.1 40
2019-06-03 05:00:00 22.8 20 Norte 37 Norte 0 1008.9 -1.3 48
2019-06-03 04:00:00 23 20 Norte 33 Norte 0 1009.3 -1 49
2019-06-03 03:00:00 22.5 22 Norte 39 Norte 0 1009.7 -1 60
2019-06-03 02:00:00 22.9 22 Norte 33 Norte 0 1010.2 0 62
2019-06-03 01:00:00 24.2 22 Norte 37 Norte 0 1010.3 1 47
2019-06-03 00:00:00 24.8 23 Norte 33 Norte 0 1010.7 2.2 43
2019-06-02 23:00:00 27.2 21 Norte 33 Nordeste 0 1010.2 2.6 31
2019-06-02 22:00:00 25.5 20 Norte 33 Norte 0 1009.3 1.5 41
2019-06-02 21:00:00 25.4 16 Norte 39 Norte 0 1008.5 1 44
2019-06-02 20:00:00 25.2 21 Norte 39 Norte 0 1007.6 -0.3 53
2019-06-02 19:00:00 25.4 33 Norte 39 Norte 0 1007.8 -0.1 59
2019-06-02 18:00:00 25.4 32 Norte 42 Nordeste 0 1007.5 -0.4 62
2019-06-02 17:00:00 24.9 35 Nordeste 42 Nordeste 0 1007.9 -0.5 65
2019-06-02 16:00:00 25.7 34 Norte 46 Norte 0 1007.9 -0.9 62
2019-06-02 15:00:00 25.6 37 Norte 46 Nordeste 0 1007.9 -1 64
2019-06-02 14:00:00 25.4 39 Nordeste 46 Nordeste 0 1008.4 -0.6 66
2019-06-02 13:00:00 25 39 Norte 48 Norte 0 1008.8 0.5 66
2019-06-02 12:00:00 24.5 36 Norte 45 Norte 0 1008.9 1.1 67
2019-06-02 11:00:00 23.1 35 Norte 46 Norte 0 1009 1 71
2019-06-02 10:00:00 22.8 25 Norte 33 Nordeste 0 1008.3 1.2 72
2019-06-02 09:00:00 20.4 24 Norte 33 Norte 0 1007.8 0.7 85
2019-06-02 08:00:00 19 20 Norte 32 Norte 0 1008 0.6 92
2019-06-02 07:00:00 18 0 Calma 9 Noroeste 0 1007.1 -0.2 88
2019-06-02 06:00:00 18.1 4 Oeste 8 Noroeste 0 1007.1 -0.7 87
2019-06-02 05:00:00 18 6 Noroeste 8 Noroeste 0 1007.4 -1 85
2019-06-02 04:00:00 18.4 3 Sur 9 Nordeste 0 1007.3 -1.6 83
2019-06-02 03:00:00 19.2 7 Norte 24 Norte 0 1007.8 -1.6 85
2019-06-02 02:00:00 19.8 17 Norte 26 Norte 0 1008.4 -0.7 83
2019-06-02 01:00:00 20.1 15 Norte 26 Norte 0 1008.9 0.7 80
2019-06-02 00:00:00 20.1 13 Norte 22 Norte 0 1009.4 2.1 78
2019-06-01 23:00:00 20.4 13 Norte 18 Norte 0 1009.1 2.4 76
2019-06-01 22:00:00 20.6 12 Norte 24 Norte 0 1008.2 1.7 77
2019-06-01 21:00:00 21.2 13 Norte 24 Norte 0 1007.3 0.7 75
2019-06-01 20:00:00 22.6 16 Norte 33 Norte 0 1006.7 -0.4 70
2019-06-01 19:00:00 23.6 26 Norte 39 Norte 0 1006.5 -1 66
2019-06-01 18:00:00 24.2 31 Norte 42 Nordeste 0 1006.6 -1.3 65
2019-06-01 17:00:00 24.3 33 Nordeste 42 Nordeste 0 1007.1 -1.2 63
2019-06-01 16:00:00 24.1 34 Norte 41 Nordeste 0 1007.5 -1.3 64
2019-06-01 15:00:00 23.9 28 Nordeste 39 Nordeste 0 1007.9 -1 64
2019-06-01 14:00:00 23.4 29 Nordeste 42 Nordeste 0 1008.3 -0.4 66
2019-06-01 13:00:00 23.3 28 Nordeste 41 Nordeste 0 1008.8 0.1 67
2019-06-01 12:00:00 22.8 32 Nordeste 46 Nordeste 0 1008.9 0.8 68
2019-06-01 11:00:00 22.6 34 Norte 45 Norte 0 1008.7 1.2 68
2019-06-01 10:00:00 21.2 31 Norte 42 Norte 0 1008.7 1.9 75
2019-06-01 09:00:00 20.2 22 Norte 39 Norte 0 1008.1 1.2 77
2019-06-01 08:00:00 18.3 10 Noroeste 15 Norte 0 1007.5 0.9 81
2019-06-01 07:00:00 17.8 5 Norte 11 Norte 0 1006.8 -0.2 83
2019-06-01 06:00:00 17.8 8 Oeste 11 Oeste 0 1006.9 -1.1 81
2019-06-01 05:00:00 18.4 0 Calma 15 Norte 0 1006.6 -2.4 80
2019-06-01 04:00:00 19.1 10 Norte 30 Norte 0 1007 -2.4 80
2019-06-01 03:00:00 19.6 15 Norte 30 Norte 0 1008 -1 78
2019-06-01 02:00:00 19.1 12 Norte 22 Norte 0 1009 0.5 80
2019-06-01 01:00:00 19.5 14 Norte 24 Norte 0 1009.4 1.5 79
2019-06-01 00:00:00 19.6 12 Norte 26 Norte 0 1009 1.6 77
2019-05-31 23:00:00 19.9 15 Norte 33 Norte 0 1008.5 1.7 76
2019-05-31 22:00:00 20.1 20 Norte 37 Norte 0 1007.9 1.2 76
2019-05-31 21:00:00 21.1 16 Norte 28 Norte 0 1007.4 0.3 72
2019-05-31 20:00:00 22.6 22 Norte 35 Norte 0 1006.8 -0.7 67
2019-05-31 19:00:00 24.5 29 Norte 39 Nordeste 0 1006.7 -1.4 60
2019-05-31 18:00:00 24.9 34 Norte 48 Norte 0 1007.1 -1.5 59
2019-05-31 17:00:00 24.9 36 Norte 48 Norte 0 1007.5 -1.3 59
2019-05-31 16:00:00 24.8 41 Nordeste 50 Nordeste 0 1008.1 -1.3 60
2019-05-31 15:00:00 24.6 43 Nordeste 52 Nordeste 0 1008.6 -0.6 59
2019-05-31 14:00:00 25.1 34 Norte 48 Norte 0 1008.8 -0.1 58
2019-05-31 13:00:00 24 37 Norte 50 Norte 0 1009.4 0.7 62
2019-05-31 12:00:00 24.2 12 Este 26 Nordeste 0 1009.2 0.4 61
2019-05-31 11:00:00 23.9 13 Este 21 Nordeste 0 1008.9 0.1 60
2019-05-31 10:00:00 21.5 3 Sudoeste 13 Noroeste 0 1008.7 0.2 64
2019-05-31 09:00:00 20 5 Norte 15 Norte 0 1008.8 0.4 73
2019-05-31 08:00:00 18 6 Norte 9 Norte 0 1008.8 0.6 77
2019-05-31 07:00:00 16.5 4 Noroeste 8 Noroeste 0 1008.5 0.1 83
2019-05-31 06:00:00 16.7 0 Calma 13 Norte 0 1008.4 -0.9 80
2019-05-31 05:00:00 18.1 6 Noroeste 26 Norte 0 1008.2 -1.5 79
2019-05-31 04:00:00 18.6 18 Norte 30 Norte 0 1008.4 -1.7 78
2019-05-31 03:00:00 18.9 17 Norte 35 Norte 0 1009.3 -1.2 77
2019-05-31 02:00:00 19.1 19 Norte 35 Norte 0 1009.7 -0.8 76
2019-05-31 01:00:00 19.1 16 Norte 30 Norte 0 1010.1 0 76
2019-05-31 00:00:00 19.1 15 Norte 24 Norte 0 1010.5 1.1 75
2019-05-30 23:00:00 19.2 8 Norte 15 Norte 0 1010.5 1.6 72
2019-05-30 22:00:00 19.9 6 Nordeste 24 Norte 0 1010.1 1.4 70
2019-05-30 21:00:00 20.5 16 Norte 32 Norte 0 1009.4 0.5 69
2019-05-30 20:00:00 22.1 22 Norte 41 Norte 0 1008.9 -0.3 63
2019-05-30 19:00:00 22.8 30 Norte 50 Norte 0 1008.7 -0.6 61
2019-05-30 18:00:00 23.6 39 Norte 55 Norte 0 1008.9 -0.9 59
2019-05-30 17:00:00 23.7 45 Norte 55 Norte 0 1009.2 -1.2 59
2019-05-30 16:00:00 23.9 46 Nordeste 58 Nordeste 0 1009.3 -1.4 58
2019-05-30 15:00:00 24.1 47 Norte 55 Norte 0 1009.8 -0.9 57
2019-05-30 14:00:00 23.7 43 Nordeste 50 Norte 0 1010.4 -0.1 58
2019-05-30 13:00:00 23.6 42 Nordeste 50 Norte 0 1010.7 0.2 58
2019-05-30 12:00:00 23.5 35 Norte 46 Norte 0 1010.7 0.4 59
2019-05-30 11:00:00 22.8 30 Norte 42 Norte 0 1010.5 0.3 60
2019-05-30 10:00:00 21.8 18 Norte 26 Nordeste 0 1010.5 0.4 60
2019-05-30 09:00:00 19.8 10 Norte 17 Norte 0 1010.3 0.6 67
2019-05-30 08:00:00 17.1 5 Noroeste 9 Norte 0 1010.2 0.8 79
2019-05-30 07:00:00 16.3 3 Norte 13 Norte 0 1010.1 0.4 78
2019-05-30 06:00:00 17.2 9 Norte 17 Norte 0 1009.7 -0.5 78
2019-05-30 05:00:00 17.8 14 Norte 33 Norte 0 1009.4 -1.2 77
2019-05-30 04:00:00 18.1 18 Norte 30 Norte 0 1009.7 -1.6 76
2019-05-30 03:00:00 18.3 19 Norte 39 Norte 0 1010.2 -1.4 76
2019-05-30 02:00:00 18.5 24 Norte 37 Norte 0 1010.6 -0.9 74
2019-05-30 01:00:00 18.5 16 Norte 30 Norte 0 1011.3 0.4 75
2019-05-30 00:00:00 18.7 18 Norte 35 Norte 0 1011.6 1.5 74
2019-05-29 23:00:00 18.9 22 Norte 41 Norte 0 1011.5 2 73
2019-05-29 22:00:00 19.3 22 Norte 37 Norte 0 1010.9 1.7 72
2019-05-29 21:00:00 19.8 25 Norte 45 Norte 0 1010.1 0.8 70
2019-05-29 20:00:00 21.4 25 Norte 48 Norte 0 1009.5 0.1 65
2019-05-29 19:00:00 22.2 34 Norte 50 Norte 0 1009.2 -0.9 62
2019-05-29 18:00:00 23.6 36 Norte 50 Norte 0 1009.3 -1.2 57
2019-05-29 17:00:00 23.7 39 Norte 54 Norte 0 1009.4 -1.6 56
2019-05-29 16:00:00 23.9 44 Norte 54 Norte 0 1010.1 -1.1 55
2019-05-29 15:00:00 24.3 41 Norte 54 Norte 0 1010.5 -0.9 54
2019-05-29 14:00:00 24 37 Norte 52 Norte 0 1011 -0.2 55
2019-05-29 13:00:00 23.8 38 Norte 54 Norte 0 1011.2 -0.2 55
2019-05-29 12:00:00 23.1 37 Norte 46 Norte 0 1011.4 0 58
2019-05-29 11:00:00 21.5 28 Norte 46 Norte 0 1011.2 0.3 62
2019-05-29 10:00:00 20.5 26 Norte 39 Norte 0 1011.4 0.9 65
2019-05-29 09:00:00 19.6 21 Norte 35 Norte 0 1011.4 1.2 70
2019-05-29 08:00:00 18.2 16 Norte 28 Norte 0 1010.9 0.6 77
2019-05-29 07:00:00 17.9 15 Norte 32 Norte 0 1010.5 0.1 77
2019-05-29 06:00:00 18.3 22 Norte 37 Norte 0 1010.2 -0.6 77
2019-05-29 05:00:00 18 12 Norte 37 Norte 0 1010.3 -0.7 75
2019-05-29 04:00:00 18.4 25 Norte 41 Norte 0 1010.4 -0.9 73
2019-05-29 03:00:00 18.8 24 Norte 41 Norte 0 1010.8 -0.8 75
2019-05-29 02:00:00 19 30 Norte 46 Norte 0 1011 -0.3 75
2019-05-29 01:00:00 19.1 23 Norte 45 Norte 0 1011.3 0.3 74
2019-05-29 00:00:00 19.6 28 Norte 45 Norte 0 1011.6 1.1 74
2019-05-28 23:00:00 19.8 30 Norte 45 Norte 0 1011.3 1.3 74
2019-05-28 22:00:00 20 30 Norte 48 Norte 0 1011 1.2 73
2019-05-28 21:00:00 20.3 30 Norte 46 Norte 0 1010.5 0.7 71
2019-05-28 20:00:00 21.1 32 Norte 54 Norte 0 1010 0.2 67
2019-05-28 19:00:00 22.1 33 Norte 55 Norte 0 1009.8 -0.3 65
2019-05-28 18:00:00 23.3 37 Norte 55 Nordeste 0 1009.8 -0.3 61
2019-05-28 17:00:00 23.6 43 Norte 55 Norte 0 1009.8 -0.5 60
2019-05-28 16:00:00 23.7 46 Norte 59 Norte 0 1010.1 -0.6 58
2019-05-28 15:00:00 24.1 42 Norte 55 Nordeste 0 1010.1 -0.4 58
2019-05-28 14:00:00 24.3 40 Norte 58 Norte 0 1010.3 -0.2 56
2019-05-28 13:00:00 23.8 47 Norte 58 Norte 0 1010.7 0.6 61
2019-05-28 12:00:00 23.3 41 Norte 58 Norte 0 1010.5 0.5 59
2019-05-28 11:00:00 22.9 36 Norte 54 Norte 0 1010.5 1 62
2019-05-28 10:00:00 21.8 32 Norte 46 Norte 0 1010.1 0.8 65
2019-05-28 09:00:00 20.5 31 Norte 46 Norte 0 1010 1.3 72
2019-05-28 08:00:00 19.5 25 Norte 42 Norte 0 1009.5 1 76
2019-05-28 07:00:00 19.2 23 Norte 42 Norte 0 1009.3 0.7 77
2019-05-28 06:00:00 19.3 28 Norte 46 Norte 0 1008.7 -0.1 76
2019-05-28 05:00:00 19.3 30 Norte 46 Norte 0 1008.5 -0.8 78
2019-05-28 04:00:00 19.3 29 Norte 45 Norte 0 1008.6 -1 77
2019-05-28 03:00:00 19.2 26 Norte 41 Norte 0 1008.8 -0.8 77
2019-05-28 02:00:00 19.4 29 Norte 42 Norte 0 1009.3 -0.3 78
2019-05-28 01:00:00 19.6 19 Norte 33 Norte 0 1009.6 0.7 77
2019-05-28 00:00:00 19.8 19 Norte 37 Norte 0 1009.6 1.2 76
2019-05-27 23:00:00 20.2 22 Norte 37 Norte 0 1009.6 1.8 74
2019-05-27 22:00:00 20.4 28 Norte 48 Norte 0 1008.9 1.5 74
2019-05-27 21:00:00 20.9 27 Norte 45 Norte 0 1008.4 0.4 72
2019-05-27 20:00:00 21.8 33 Norte 48 Norte 0 1007.8 -0.5 69
2019-05-27 19:00:00 23.6 31 Norte 50 Norte 0 1007.4 -1.1 63
2019-05-27 18:00:00 24.9 36 Norte 52 Norte 0 1008 -0.4 59
2019-05-27 17:00:00 25.6 42 Norte 54 Norte 0 1008.3 -0.2 55
2019-05-27 16:00:00 27.6 36 Norte 50 Norte 0 1008.5 -0.4 46
2019-05-27 15:00:00 28.3 35 Norte 50 Norte 0 1008.4 -0.6 38
2019-05-27 14:00:00 28.7 38 Norte 50 Norte 0 1008.5 -0.4 33
2019-05-27 13:00:00 28.1 34 Norte 50 Norte 0 1008.9 0.2 29
2019-05-27 12:00:00 27 32 Norte 52 Norte 0 1009 0.2 31
2019-05-27 11:00:00 25.8 26 Norte 42 Norte 0 1008.9 0.4 40
2019-05-27 10:00:00 23.1 28 Norte 45 Norte 0 1008.7 0.2 58
2019-05-27 09:00:00 22.7 27 Norte 35 Norte 0 1008.8 0.5 55
2019-05-27 08:00:00 20 17 Norte 30 Norte 0 1008.5 0.3 63
2019-05-27 07:00:00 18.6 19 Norte 32 Norte 0 1008.5 0.1 74
2019-05-27 06:00:00 18.8 18 Norte 32 Norte 0 1008.3 -0.6 73
2019-05-27 05:00:00 18.6 19 Norte 32 Norte 0 1008.2 -1.2 73
2019-05-27 04:00:00 18.7 21 Norte 37 Norte 0 1008.4 -1.7 77
2019-05-27 03:00:00 18.9 24 Norte 41 Norte 0 1008.9 -1.2 80
2019-05-27 02:00:00 19.5 26 Norte 42 Norte 0 1009.4 -0.4 75
2019-05-27 01:00:00 19.7 29 Norte 45 Norte 0 1010.1 0.6 74
2019-05-27 00:00:00 19.7 23 Norte 50 Norte 0 1010.1 1 76
2019-05-26 23:00:00 20.5 16 Norte 28 Norte 0 1009.8 0.9 65
2019-05-26 22:00:00 20.6 20 Norte 35 Norte 0 1009.5 0.8 70
2019-05-26 21:00:00 22.7 21 Norte 33 Norte 0 1009.1 0.5 54
2019-05-26 20:00:00 23.4 23 Norte 39 Norte 0 1008.9 0.2 57
2019-05-26 19:00:00 24.4 26 Norte 46 Norte 0 1008.7 -0.3 48
2019-05-26 18:00:00 24.4 31 Norte 54 Norte 0 1008.6 -0.7 56
2019-05-26 17:00:00 23.7 36 Norte 65 Norte 0 1008.7 -1.3 59
2019-05-26 16:00:00 24.7 42 Norte 55 Norte 0 1009 -1.4 55
2019-05-26 15:00:00 25 40 Norte 59 Norte 0 1009.3 -1.3 55
2019-05-26 14:00:00 25 48 Norte 59 Norte 0 1010 -0.6 54
2019-05-26 13:00:00 24.3 33 Norte 58 Norte 0 1010.4 0.3 55
2019-05-26 12:00:00 23.5 39 Norte 54 Norte 0 1010.6 0.7 56
2019-05-26 11:00:00 22.7 32 Norte 48 Norte 0 1010.6 0.9 59
2019-05-26 10:00:00 21.6 28 Norte 48 Norte 0 1010.1 0.6 62
2019-05-26 09:00:00 20.3 29 Norte 50 Norte 0 1009.9 0.3 66
2019-05-26 08:00:00 19.2 29 Norte 46 Norte 0 1009.7 -0.2 69
2019-05-26 07:00:00 18.4 27 Norte 45 Norte 0 1009.5 -0.4 76
2019-05-26 06:00:00 18.7 22 Norte 39 Norte 0 1009.6 -0.4 69
2019-05-26 05:00:00 19.1 20 Norte 39 Norte 0 1009.9 -0.7 64
2019-05-26 04:00:00 18.9 24 Norte 45 Noroeste 0 1009.9 -0.9 66
2019-05-26 03:00:00 18.7 30 Noroeste 50 Norte 0 1010 -1 65
2019-05-26 02:00:00 19.1 28 Norte 48 Norte 0 1010.6 -0.4 68
2019-05-26 01:00:00 19.1 29 Norte 52 Norte 0 1010.8 0.1 66
2019-05-26 00:00:00 19.4 30 Norte 46 Norte 0 1011 0.6 66
2019-05-25 23:00:00 19.2 28 Norte 52 Norte 0 1011 0.8 68
2019-05-25 22:00:00 19.5 31 Norte 52 Norte 0 1010.7 1 67
2019-05-25 21:00:00 19.7 33 Norte 54 Norte 0 1010.4 0.7 68
2019-05-25 20:00:00 20.7 36 Norte 58 Norte 0 1010.2 0.1 63
2019-05-25 19:00:00 22 33 Norte 58 Norte 0 1009.7 -1 62
2019-05-25 18:00:00 22.4 41 Norte 58 Norte 0 1009.7 -1.9 60
2019-05-25 17:00:00 23 36 Norte 54 Norte 0 1010.1 -1.5 56
2019-05-25 16:00:00 23.1 37 Norte 61 Norte 0 1010.7 -1.5 57
2019-05-25 15:00:00 22.4 31 Norte 59 Norte 0 1011.6 -0.5 64
2019-05-25 14:00:00 22.2 31 Norte 58 Norte 0 1011.6 -0.8 64
2019-05-25 13:00:00 21.4 37 Norte 58 Norte 0 1012.2 0.2 69
2019-05-25 12:00:00 21.1 34 Norte 52 Norte 0 1012.1 0.4 70
2019-05-25 11:00:00 20.3 31 Norte 50 Norte 0 1012.4 1.1 73
2019-05-25 10:00:00 18.7 30 Norte 54 Norte 0 1012 1.1 85
2019-05-25 09:00:00 19.1 32 Norte 50 Norte 0 1011.7 1.1 81
2019-05-25 08:00:00 18.3 26 Norte 48 Norte 0 1011.3 0.6 84
2019-05-25 07:00:00 18.8 29 Norte 50 Norte 0 1010.9 0.1 79
2019-05-25 06:00:00 18.8 29 Norte 54 Norte 0 1010.6 -0.4 78
2019-05-25 05:00:00 19.2 34 Norte 52 Norte 0 1010.7 -0.6 75
2019-05-25 04:00:00 19 31 Norte 50 Norte 0 1010.8 -0.7 72
2019-05-25 03:00:00 19.1 35 Norte 58 Norte 0 1011 -0.7 69
2019-05-25 02:00:00 19 34 Norte 59 Norte 0 1011.3 0 71
2019-05-25 01:00:00 19.1 41 Norte 59 Norte 0 1011.5 0.7 72
2019-05-25 00:00:00 19.3 40 Norte 67 Norte 0 1011.7 1.2 72
2019-05-24 23:00:00 19.7 41 Norte 65 Norte 0 1011.3 1.2 72
2019-05-24 22:00:00 20.1 39 Norte 58 Norte 0 1010.8 0.9 71
2019-05-24 21:00:00 20.4 35 Norte 55 Norte 0 1010.5 0.2 70
2019-05-24 20:00:00 22.2 34 Norte 55 Norte 0 1010.1 -0.3 57
2019-05-24 19:00:00 23.4 36 Norte 59 Norte 0 1009.9 -0.8 53
2019-05-24 18:00:00 24.3 38 Norte 55 Norte 0 1010.3 -0.8 50
2019-05-24 17:00:00 25.4 35 Norte 55 Norte 0 1010.4 -1 47
2019-05-24 16:00:00 26.3 37 Norte 59 Norte 0 1010.7 -1.4 40
2019-05-24 15:00:00 25.8 39 Norte 58 Norte 0 1011.1 -1.3 46
2019-05-24 14:00:00 25.5 40 Norte 59 Norte 0 1011.4 -0.5 48
2019-05-24 13:00:00 25 39 Norte 59 Norte 0 1012.1 0.4 45
2019-05-24 12:00:00 24.9 35 Norte 67 Noroeste 0 1012.4 1.1 41
2019-05-24 11:00:00 23.2 40 Norte 65 Norte 0 1011.9 1.2 53
2019-05-24 10:00:00 21.8 42 Norte 61 Norte 0 1011.7 1.2 62
2019-05-24 09:00:00 21 37 Norte 61 Norte 0 1011.3 0.8 62
2019-05-24 08:00:00 19.9 30 Norte 58 Norte 0 1010.7 0.5 64
2019-05-24 07:00:00 18.7 33 Norte 55 Norte 0 1010.5 0.5 73
2019-05-24 06:00:00 18.6 33 Norte 61 Norte 0 1010.5 -0.4 75
2019-05-24 05:00:00 18.7 41 Norte 58 Norte 0 1010.2 -0.8 73
2019-05-24 04:00:00 18.9 33 Norte 61 Norte 0 1010 -1.3 71
2019-05-24 03:00:00 18.9 37 Norte 59 Norte 0 1010.9 -0.9 73
2019-05-24 02:00:00 20.7 29 Norte 54 Norte 0 1011 -1.5 53
2019-05-24 01:00:00 20.3 29 Norte 55 Norte 0 1011.3 -0.7 56
2019-05-24 00:00:00 19.3 32 Norte 54 Norte 0 1011.8 0.7 68
2019-05-23 23:00:00 19.4 36 Norte 55 Norte 0 1012.5 1.6 70
2019-05-23 22:00:00 19.7 34 Norte 58 Norte 0 1012 1.4 71
2019-05-23 21:00:00 20 36 Norte 59 Nordeste 0 1011.1 0.2 67
2019-05-23 20:00:00 20.9 37 Norte 61 Norte 0 1010.9 -0.2 63
2019-05-23 19:00:00 21.6 38 Norte 59 Norte 0 1010.6 -0.7 59
2019-05-23 18:00:00 22.4 39 Norte 67 Norte 0 1010.9 -0.9 56
2019-05-23 17:00:00 23.2 38 Norte 67 Norte 0 1011.1 -0.9 53
2019-05-23 16:00:00 23.4 44 Norte 65 Norte 0 1011.3 -0.7 55
2019-05-23 15:00:00 23.1 41 Norte 63 Norte 0 1011.8 -0.2 57
2019-05-23 14:00:00 22.6 40 Norte 68 Norte 0 1012 -0.2 59
2019-05-23 13:00:00 22.9 44 Norte 72 Norte 0 1012 -0.4 61
2019-05-23 12:00:00 22.9 42 Norte 65 Norte 0 1012 0.1 59
2019-05-23 11:00:00 22.3 36 Norte 65 Norte 0 1012.2 0.7 54
2019-05-23 10:00:00 21.2 41 Norte 65 Norte 0 1012.4 1 57
2019-05-23 09:00:00 20.1 28 Norte 59 Norte 0 1011.9 0.8 63
2019-05-23 08:00:00 19.4 36 Norte 54 Norte 0 1011.5 0.4 68
2019-05-23 07:00:00 19.4 30 Norte 59 Norte 0 1011.4 0.1 65
2019-05-23 06:00:00 19.5 35 Norte 55 Norte 0 1011.1 -0.3 64
2019-05-23 05:00:00 19.5 32 Norte 58 Norte 0 1011.1 -0.8 64
2019-05-23 04:00:00 19.4 29 Norte 58 Norte 0 1011.3 -1.4 67
2019-05-23 03:00:00 19.6 32 Norte 58 Noroeste 0 1011.4 -1.4 69
2019-05-23 02:00:00 19.5 31 Norte 58 Norte 0 1011.9 -0.9 65
2019-05-23 01:00:00 19.9 37 Norte 55 Norte 0 1012.7 0.5 70
2019-05-23 00:00:00 19.7 30 Norte 48 Norte 0 1012.8 0.7 68
2019-05-22 23:00:00 19.6 33 Norte 58 Norte 0 1012.8 1.1 72
2019-05-22 22:00:00 20.1 31 Norte 50 Norte 0 1012.2 0.6 67
2019-05-22 21:00:00 20.2 31 Norte 54 Norte 0 1012.1 0.7 70
2019-05-22 20:00:00 21.3 31 Norte 55 Norte 0 1011.7 0.2 68
2019-05-22 19:00:00 22 34 Norte 55 Norte 0 1011.6 -0.4 66
2019-05-22 18:00:00 23 33 Norte 59 Norte 0 1011.4 -0.8 59
2019-05-22 17:00:00 23.7 37 Norte 55 Noroeste 0 1011.5 -1 52
2019-05-22 16:00:00 23.4 34 Norte 55 Norte 0 1012 -0.8 54
2019-05-22 15:00:00 23.2 33 Norte 55 Norte 0 1012.2 -0.6 54
2019-05-22 14:00:00 23.1 37 Norte 55 Norte 0 1012.5 -0.2 55
2019-05-22 13:00:00 22.4 34 Norte 55 Norte 0 1012.8 0.6 56
2019-05-22 12:00:00 22.5 29 Norte 48 Norte 0 1012.8 1.2 59
2019-05-22 11:00:00 21.5 31 Norte 50 Norte 0 1012.7 1.4 65
2019-05-22 10:00:00 21.1 29 Norte 48 Norte 0 1012.2 1.3 65
2019-05-22 09:00:00 19.9 28 Norte 42 Norte 0 1011.6 1.1 71
2019-05-22 08:00:00 19.4 27 Norte 45 Norte 0 1011.3 0.5 77
2019-05-22 07:00:00 19 23 Norte 41 Norte 0 1010.9 -0.2 78
2019-05-22 06:00:00 19.4 26 Norte 46 Norte 0 1010.5 -1.1 69
2019-05-22 05:00:00 19 27 Norte 45 Norte 0 1010.8 -1.3 71
2019-05-22 04:00:00 19.1 25 Norte 45 Norte 0 1011.1 -1.4 70
2019-05-22 03:00:00 19.3 26 Norte 45 Norte 0 1011.6 -1.2 72
2019-05-22 02:00:00 19.2 24 Norte 42 Norte 0 1012.1 -0.3 73
2019-05-22 01:00:00 19.3 27 Norte 42 Norte 0 1012.5 0.7 74
2019-05-22 00:00:00 19.9 27 Norte 46 Norte 0 1012.8 1.1 67